Time;durP1;ratioP1;P1;durP2;ratioP2;P2;SDS_P1;SDS_P2;PMS_P1;PMS_P2;Temp;Humidity;BMP_temperature;BMP_pressure;BME280_temperature;BME280_humidity;BME280_pressure;Samples;Min_cycle;Max_cycle;Signal;HPM_P1;HPM_P2
2022/04/10 00:01:27;;;;;;;18.08;2.78;;;3.20;99.90;;;;;;5020437;28;20782;-72
2022/04/10 00:03:53;;;;;;;22.42;3.15;;;2.90;99.90;;;;;;5019650;28;20123;-72
2022/04/10 00:06:19;;;;;;;10.45;2.55;;;2.90;99.90;;;;;;5032294;28;20041;-72
2022/04/10 00:08:45;;;;;;;12.75;2.50;;;2.80;99.90;;;;;;5028844;28;20084;-71
2022/04/10 00:11:10;;;;;;;15.48;2.15;;;2.80;99.90;;;;;;5029465;28;20040;-72
2022/04/10 00:13:37;;;;;;;14.40;2.75;;;2.80;99.90;;;;;;5025062;28;20048;-72
2022/04/10 00:16:03;;;;;;;13.75;1.80;;;2.80;99.90;;;;;;5022460;28;20057;-72
2022/04/10 00:18:28;;;;;;;8.70;1.75;;;2.80;99.90;;;;;;5029414;28;20045;-72
2022/04/10 00:20:54;;;;;;;9.90;2.45;;;2.90;99.90;;;;;;5031994;28;20129;-72
2022/04/10 00:23:19;;;;;;;17.80;1.88;;;2.80;99.90;;;;;;5034039;28;20052;-72
2022/04/10 00:25:45;;;;;;;17.67;2.15;;;2.80;99.90;;;;;;5025365;28;20053;-72
2022/04/10 00:28:10;;;;;;;14.60;3.45;;;2.80;99.90;;;;;;5033940;28;20053;-72
2022/04/10 00:30:36;;;;;;;10.85;2.33;;;2.70;99.90;;;;;;5032952;28;20048;-72
2022/04/10 00:33:02;;;;;;;12.23;2.08;;;2.70;99.90;;;;;;5031473;28;20060;-72
2022/04/10 00:35:27;;;;;;;11.80;2.55;;;2.70;99.90;;;;;;5032142;28;20140;-72
2022/04/10 00:37:53;;;;;;;16.33;2.30;;;2.70;99.90;;;;;;5021116;28;20564;-72
2022/04/10 00:40:18;;;;;;;14.18;2.22;;;2.70;99.90;;;;;;5032507;28;20047;-72
2022/04/10 00:42:49;;;;;;;17.40;2.28;;;2.70;99.90;;;;;;5027287;28;20103;-72
2022/04/10 00:45:16;;;;;;;11.43;2.25;;;2.70;99.90;;;;;;5029601;28;20053;-72
2022/04/10 00:47:44;;;;;;;14.65;2.15;;;2.70;99.90;;;;;;5036769;28;20053;-72
2022/04/10 00:50:11;;;;;;;15.10;2.03;;;2.60;99.90;;;;;;5032428;28;20053;-72
2022/04/10 00:52:38;;;;;;;15.63;2.28;;;2.70;99.90;;;;;;5025194;28;20053;-72
2022/04/10 00:55:04;;;;;;;12.48;2.42;;;2.60;99.90;;;;;;5037702;28;20045;-72
2022/04/10 00:57:30;;;;;;;10.95;2.83;;;2.70;99.90;;;;;;5036235;28;20135;-72
2022/04/10 00:59:56;;;;;;;9.73;1.88;;;2.70;99.90;;;;;;5035669;28;20068;-72
2022/04/10 01:02:21;;;;;;;15.57;1.83;;;2.80;99.90;;;;;;5037213;28;20073;-72
2022/04/10 01:04:47;;;;;;;17.42;2.38;;;2.80;99.90;;;;;;5013985;28;20052;-72
2022/04/10 01:07:15;;;;;;;11.50;2.33;;;2.80;99.90;;;;;;5035548;28;20063;-72
2022/04/10 01:09:41;;;;;;;14.48;1.85;;;2.80;99.90;;;;;;5035589;28;20114;-72
2022/04/10 01:12:08;;;;;;;15.00;1.80;;;2.80;99.90;;;;;;5028802;28;20049;-72
2022/04/10 01:14:34;;;;;;;18.08;2.13;;;2.80;99.90;;;;;;5036627;28;20052;-72
2022/04/10 01:17:00;;;;;;;12.45;1.45;;;2.80;99.90;;;;;;5029650;28;20905;-71
2022/04/10 01:19:27;;;;;;;13.77;2.85;;;2.80;99.90;;;;;;5037480;28;20415;-72
2022/04/10 01:21:57;;;;;;;9.65;1.67;;;2.70;99.90;;;;;;5031166;28;20075;-72
2022/04/10 01:24:23;;;;;;;12.38;2.10;;;2.70;99.90;;;;;;5026017;28;20048;-72
2022/04/10 01:26:49;;;;;;;13.00;2.20;;;2.70;99.90;;;;;;5028796;28;20595;-71
2022/04/10 01:29:15;;;;;;;16.80;2.60;;;2.70;99.90;;;;;;5034712;28;20506;-72
2022/04/10 01:31:43;;;;;;;13.32;1.95;;;2.60;99.90;;;;;;5029115;28;20155;-72
2022/04/10 01:34:13;;;;;;;10.13;2.55;;;2.60;99.90;;;;;;5029476;28;20050;-72
2022/04/10 01:36:39;;;;;;;10.35;3.33;;;2.60;99.90;;;;;;5026940;28;20528;-72
2022/04/10 01:39:06;;;;;;;14.55;2.10;;;2.50;99.90;;;;;;5031055;28;20041;-72
2022/04/10 01:41:34;;;;;;;13.68;2.20;;;2.50;99.90;;;;;;5027204;28;20524;-71
2022/04/10 01:44:00;;;;;;;11.80;2.30;;;2.50;99.90;;;;;;5034924;28;20056;-72
2022/04/10 01:46:28;;;;;;;10.80;1.90;;;2.50;99.90;;;;;;5038363;28;20045;-72
2022/04/10 01:48:54;;;;;;;13.27;2.38;;;2.50;99.90;;;;;;5034013;28;20045;-72
2022/04/10 01:51:19;;;;;;;11.80;2.35;;;2.40;99.90;;;;;;5031758;28;20045;-72
2022/04/10 01:53:45;;;;;;;13.35;2.85;;;2.40;99.90;;;;;;5034037;28;20037;-72
2022/04/10 01:56:11;;;;;;;17.25;2.42;;;3.20;99.90;;;;;;5032916;28;20060;-72
2022/04/10 01:58:40;;;;;;;11.50;2.22;;;2.40;99.90;;;;;;5034652;28;20055;-72
2022/04/10 02:01:07;;;;;;;18.83;3.10;;;2.40;99.90;;;;;;5030411;28;20048;-72
2022/04/10 02:03:33;;;;;;;13.68;2.35;;;2.40;99.90;;;;;;5032228;28;20127;-72
2022/04/10 02:06:02;;;;;;;18.08;2.60;;;2.40;99.90;;;;;;5027992;28;20144;-71
2022/04/10 02:08:29;;;;;;;13.68;2.20;;;2.30;99.90;;;;;;5030980;28;20045;-72
2022/04/10 02:10:55;;;;;;;12.90;1.92;;;2.30;99.90;;;;;;5026371;28;20049;-72
2022/04/10 02:13:21;;;;;;;13.65;2.33;;;2.30;99.90;;;;;;5031065;28;20104;-72
2022/04/10 02:15:47;;;;;;;10.02;2.40;;;2.30;99.90;;;;;;5028285;28;20682;-72
2022/04/10 02:18:12;;;;;;;21.00;2.45;;;2.30;99.90;;;;;;5034257;28;20041;-72
2022/04/10 02:20:38;;;;;;;15.18;2.10;;;2.30;99.90;;;;;;5033854;28;20053;-71
2022/04/10 02:23:04;;;;;;;9.82;1.90;;;2.30;99.90;;;;;;5033246;28;20056;-72
2022/04/10 02:25:30;;;;;;;9.88;2.20;;;2.20;99.90;;;;;;5035534;28;20053;-72
2022/04/10 02:27:55;;;;;;;13.23;2.28;;;2.20;99.90;;;;;;5023555;28;20083;-72
2022/04/10 02:30:22;;;;;;;20.65;2.85;;;2.20;99.90;;;;;;5034875;28;20056;-72
2022/04/10 02:32:48;;;;;;;17.83;2.35;;;2.20;99.90;;;;;;5028606;28;20084;-72
2022/04/10 02:35:14;;;;;;;11.05;2.58;;;2.20;99.90;;;;;;5027752;28;20084;-72
2022/04/10 02:37:40;;;;;;;15.10;2.55;;;2.10;99.90;;;;;;5034325;28;20071;-72
2022/04/10 02:40:07;;;;;;;12.40;2.60;;;2.10;99.90;;;;;;5031718;28;20055;-71
2022/04/10 02:42:36;;;;;;;10.93;1.63;;;2.10;99.90;;;;;;5028746;28;20820;-72
2022/04/10 02:45:03;;;;;;;12.15;2.33;;;2.10;99.90;;;;;;5030569;28;20060;-71
2022/04/10 02:47:32;;;;;;;13.93;2.95;;;2.10;99.90;;;;;;5035860;28;20084;-72
2022/04/10 02:49:58;;;;;;;14.57;2.25;;;2.10;99.90;;;;;;5026863;28;20040;-71
2022/04/10 02:52:23;;;;;;;14.45;1.95;;;2.20;99.90;;;;;;5033446;28;20666;-72
2022/04/10 02:54:49;;;;;;;6.78;1.40;;;2.20;99.90;;;;;;5035129;28;20506;-72
2022/04/10 02:57:15;;;;;;;16.17;2.28;;;2.20;99.90;;;;;;5025701;28;20045;-72
2022/04/10 02:59:41;;;;;;;10.13;2.13;;;2.20;99.90;;;;;;5024749;28;20052;-72
2022/04/10 03:02:06;;;;;;;7.95;1.50;;;2.20;99.90;;;;;;5027948;28;20787;-71
2022/04/10 03:04:32;;;;;;;18.55;2.22;;;2.20;99.90;;;;;;5028054;28;20134;-72
2022/04/10 03:06:58;;;;;;;10.98;2.17;;;2.20;99.90;;;;;;5029323;28;20522;-71
2022/04/10 03:09:23;;;;;;;9.23;2.88;;;2.20;99.90;;;;;;5026200;28;20053;-72
2022/04/10 03:11:49;;;;;;;13.52;2.25;;;2.30;99.90;;;;;;5029299;28;20048;-71
2022/04/10 03:14:15;;;;;;;10.75;1.90;;;2.50;99.90;;;;;;5021145;28;20051;-72
2022/04/10 03:16:42;;;;;;;9.45;1.85;;;2.50;99.90;;;;;;5027759;28;20057;-72
2022/04/10 03:19:08;;;;;;;4.65;0.70;;;2.70;99.90;;;;;;5033088;28;20121;-72
2022/04/10 03:21:34;;;;;;;5.43;0.98;;;2.80;99.90;;;;;;5031680;28;20686;-72
2022/04/10 03:24:01;;;;;;;8.32;1.20;;;2.80;99.90;;;;;;5032744;28;20079;-71
2022/04/10 03:26:27;;;;;;;6.30;1.25;;;3.00;99.90;;;;;;5020387;28;20044;-72
2022/04/10 03:28:53;;;;;;;5.60;1.02;;;2.90;99.90;;;;;;5033743;28;20098;-72
2022/04/10 03:31:20;;;;;;;7.88;1.40;;;2.90;99.90;;;;;;5031674;28;20534;-72
2022/04/10 03:33:46;;;;;;;10.77;1.95;;;2.90;99.90;;;;;;5035981;28;20064;-72
2022/04/10 03:36:12;;;;;;;7.78;1.30;;;2.80;99.90;;;;;;5031865;28;20167;-72
2022/04/10 03:38:38;;;;;;;8.35;1.80;;;2.80;99.90;;;;;;5037981;28;20684;-72
2022/04/10 03:41:03;;;;;;;7.75;1.52;;;2.70;99.90;;;;;;5027507;28;20670;-72
2022/04/10 03:43:29;;;;;;;9.90;1.40;;;2.70;99.90;;;;;;5034293;28;20048;-72
2022/04/10 03:45:55;;;;;;;12.43;1.75;;;2.70;99.90;;;;;;5029464;28;20045;-72
2022/04/10 03:48:20;;;;;;;9.43;1.48;;;2.60;99.90;;;;;;5028564;28;20049;-72
2022/04/10 03:50:46;;;;;;;8.63;1.38;;;2.70;99.90;;;;;;5033290;28;20048;-72
2022/04/10 03:53:11;;;;;;;8.82;1.27;;;2.70;99.90;;;;;;5031098;28;20048;-72
2022/04/10 03:55:37;;;;;;;9.32;1.55;;;2.80;99.90;;;;;;5033144;28;20088;-72
2022/04/10 03:58:02;;;;;;;6.10;1.25;;;2.90;99.90;;;;;;5029531;28;20051;-72
2022/04/10 04:00:28;;;;;;;9.88;1.15;;;2.90;99.90;;;;;;5031974;28;20135;-72
2022/04/10 04:02:54;;;;;;;8.57;1.23;;;3.00;99.90;;;;;;5033471;28;20041;-72
2022/04/10 04:05:19;;;;;;;7.72;1.00;;;3.00;99.90;;;;;;5028888;28;20559;-72
2022/04/10 04:07:45;;;;;;;6.30;1.10;;;3.00;99.90;;;;;;5034417;28;20041;-72
2022/04/10 04:10:11;;;;;;;9.13;1.20;;;2.90;99.90;;;;;;5030953;28;20072;-72
2022/04/10 04:12:37;;;;;;;6.45;1.25;;;3.00;99.90;;;;;;5032138;28;20055;-72
2022/04/10 04:15:04;;;;;;;7.75;1.08;;;3.00;99.90;;;;;;5034959;28;20110;-72
2022/04/10 04:17:29;;;;;;;9.60;1.27;;;2.90;99.90;;;;;;5034923;28;20102;-72
2022/04/10 04:19:56;;;;;;;6.20;1.13;;;2.90;99.90;;;;;;5033689;28;20037;-72
2022/04/10 04:22:21;;;;;;;8.80;1.10;;;2.90;99.90;;;;;;5034127;28;20056;-72
2022/04/10 04:24:47;;;;;;;11.60;1.20;;;2.90;99.90;;;;;;5030568;28;20037;-73
2022/04/10 04:27:13;;;;;;;10.85;2.00;;;2.90;99.90;;;;;;5031999;28;20200;-72
2022/04/10 04:29:38;;;;;;;4.65;0.90;;;2.80;99.90;;;;;;5033490;28;20095;-72
2022/04/10 04:32:05;;;;;;;5.50;0.80;;;2.80;99.90;;;;;;5036538;28;20118;-72
2022/04/10 04:34:31;;;;;;;2.97;0.77;;;2.80;99.90;;;;;;5033179;28;20048;-71
2022/04/10 04:36:56;;;;;;;5.75;0.80;;;2.80;99.90;;;;;;5033042;28;20045;-72
2022/04/10 04:39:22;;;;;;;4.18;0.70;;;2.80;99.90;;;;;;5036473;28;20053;-72
2022/04/10 04:41:48;;;;;;;6.13;1.48;;;2.80;99.90;;;;;;5029905;28;20613;-71
2022/04/10 04:44:14;;;;;;;5.85;0.70;;;2.80;99.90;;;;;;5033860;28;20131;-71
2022/04/10 04:46:39;;;;;;;8.10;1.65;;;2.80;99.90;;;;;;5033285;28;20060;-71
2022/04/10 04:49:05;;;;;;;5.80;0.95;;;2.80;99.90;;;;;;5029202;28;20043;-71
2022/04/10 04:51:36;;;;;;;6.00;0.98;;;2.70;99.90;;;;;;5029622;28;20037;-71
2022/04/10 04:54:02;;;;;;;6.63;0.90;;;2.70;99.90;;;;;;5034117;28;20052;-71
2022/04/10 04:56:28;;;;;;;3.78;0.85;;;2.70;99.90;;;;;;5036216;28;20236;-71
2022/04/10 04:58:54;;;;;;;4.97;0.70;;;2.70;99.90;;;;;;5030653;28;20053;-71
2022/04/10 05:01:19;;;;;;;4.40;0.70;;;2.70;99.90;;;;;;5030060;28;20888;-71
2022/04/10 05:03:45;;;;;;;13.27;3.10;;;2.70;99.90;;;;;;5025813;28;20037;-71
2022/04/10 05:06:10;;;;;;;3.80;0.77;;;2.60;99.90;;;;;;5029822;28;20049;-71
2022/04/10 05:08:36;;;;;;;5.25;0.90;;;2.60;99.90;;;;;;5028714;28;20045;-72
2022/04/10 05:11:02;;;;;;;6.50;0.90;;;2.50;99.90;;;;;;5023093;28;20556;-72
2022/04/10 05:13:28;;;;;;;6.18;0.90;;;2.60;99.90;;;;;;5032156;28;20202;-72
2022/04/10 05:15:53;;;;;;;8.45;1.80;;;2.60;99.90;;;;;;5027212;28;20049;-72
2022/04/10 05:18:20;;;;;;;7.45;1.35;;;2.60;99.90;;;;;;5034542;28;20053;-72
2022/04/10 05:20:46;;;;;;;9.20;1.05;;;2.70;99.90;;;;;;5031561;28;20041;-72
2022/04/10 05:23:16;;;;;;;5.40;0.70;;;2.60;99.90;;;;;;5034224;28;20056;-72
2022/04/10 05:25:42;;;;;;;6.85;1.73;;;2.70;99.90;;;;;;5026819;28;20806;-72
2022/04/10 05:28:08;;;;;;;2.70;0.70;;;2.70;99.90;;;;;;5034846;28;20041;-72
2022/04/10 05:30:34;;;;;;;2.22;0.55;;;2.60;99.90;;;;;;5031300;28;20084;-72
2022/04/10 05:33:00;;;;;;;4.95;0.98;;;2.60;99.90;;;;;;5025301;28;20144;-72
2022/04/10 05:35:25;;;;;;;3.17;0.82;;;2.60;99.90;;;;;;5023334;28;20084;-72
2022/04/10 05:37:51;;;;;;;7.47;1.10;;;2.60;99.90;;;;;;5034974;28;20044;-72
2022/04/10 05:40:17;;;;;;;2.72;0.70;;;2.60;99.90;;;;;;5023296;28;20050;-72
2022/04/10 05:42:44;;;;;;;8.27;1.08;;;2.50;99.90;;;;;;5024770;28;20123;-72
2022/04/10 05:45:10;;;;;;;9.55;1.25;;;2.60;99.90;;;;;;5027926;28;20040;-71
2022/04/10 05:47:39;;;;;;;4.90;0.85;;;2.60;99.90;;;;;;5023189;28;20057;-72
2022/04/10 05:50:06;;;;;;;6.60;2.05;;;2.70;99.90;;;;;;5033922;28;20040;-71
2022/04/10 05:52:37;;;;;;;5.93;1.00;;;2.70;99.90;;;;;;5028667;28;20079;-72
2022/04/10 05:55:03;;;;;;;5.35;1.02;;;2.70;99.90;;;;;;5032694;28;20479;-72
2022/04/10 05:57:28;;;;;;;8.35;1.00;;;2.70;99.90;;;;;;5028758;28;20053;-71
2022/04/10 05:59:54;;;;;;;7.95;1.30;;;2.70;99.90;;;;;;5040077;28;20103;-71
2022/04/10 06:02:19;;;;;;;3.78;1.00;;;2.70;99.90;;;;;;5041638;28;20044;-71
2022/04/10 06:04:45;;;;;;;7.70;1.00;;;2.80;99.90;;;;;;5036745;28;20731;-71
2022/04/10 06:07:11;;;;;;;8.82;1.17;;;2.80;99.90;;;;;;5034628;28;20118;-71
2022/04/10 06:09:36;;;;;;;8.52;1.10;;;2.90;99.90;;;;;;5033446;28;20049;-71
2022/04/10 06:12:02;;;;;;;7.88;1.42;;;3.00;99.90;;;;;;5040036;28;20454;-71
2022/04/10 06:14:28;;;;;;;6.50;1.10;;;3.20;99.90;;;;;;5032067;28;20067;-71
2022/04/10 06:16:53;;;;;;;5.13;1.15;;;3.20;99.90;;;;;;5031059;28;20159;-71
2022/04/10 06:19:19;;;;;;;7.80;1.13;;;3.30;99.90;;;;;;5034236;28;20631;-71
2022/04/10 06:21:45;;;;;;;6.78;1.10;;;3.30;99.90;;;;;;5034169;28;20129;-71
2022/04/10 06:24:11;;;;;;;11.85;2.25;;;3.40;99.90;;;;;;5031459;28;20049;-71
2022/04/10 06:26:36;;;;;;;3.90;1.20;;;3.50;99.90;;;;;;5026546;28;20049;-70
2022/04/10 06:29:03;;;;;;;14.30;2.70;;;3.50;99.90;;;;;;5035404;28;20428;-70
2022/04/10 06:31:28;;;;;;;7.63;1.58;;;3.50;99.90;;;;;;5032727;28;20041;-71
2022/04/10 06:33:56;;;;;;;9.32;1.00;;;3.60;99.90;;;;;;5031425;28;20522;-70
2022/04/10 06:36:22;;;;;;;9.35;1.42;;;3.60;99.90;;;;;;5027374;28;20424;-71
2022/04/10 06:38:49;;;;;;;4.30;1.20;;;3.70;99.90;;;;;;5031454;28;20053;-71
2022/04/10 06:41:15;;;;;;;6.53;1.13;;;3.70;99.90;;;;;;5021138;28;20379;-71
2022/04/10 06:43:41;;;;;;;5.97;1.77;;;3.70;99.90;;;;;;5029195;28;20041;-70
2022/04/10 06:46:06;;;;;;;4.72;1.10;;;3.80;99.90;;;;;;5028438;28;20052;-71
2022/04/10 06:48:35;;;;;;;10.63;1.20;;;4.00;99.90;;;;;;5026097;28;20140;-71
2022/04/10 06:51:01;;;;;;;13.25;1.55;;;4.00;99.90;;;;;;5026919;28;20048;-71
2022/04/10 06:53:27;;;;;;;9.35;1.40;;;4.10;99.90;;;;;;5027595;28;20046;-71
2022/04/10 06:55:52;;;;;;;6.80;0.90;;;4.10;99.90;;;;;;5029661;28;20057;-71
2022/04/10 06:58:19;;;;;;;3.83;1.02;;;4.00;99.90;;;;;;5035396;28;20391;-70
2022/04/10 07:00:45;;;;;;;5.15;1.10;;;3.90;99.90;;;;;;5035472;28;20049;-70
2022/04/10 07:03:11;;;;;;;9.57;1.33;;;3.80;99.90;;;;;;5032557;28;20065;-70
2022/04/10 07:05:37;;;;;;;4.68;0.75;;;3.70;99.90;;;;;;5035486;28;20222;-71
2022/04/10 07:08:03;;;;;;;4.57;1.15;;;3.60;99.90;;;;;;5030043;28;20057;-70
2022/04/10 07:10:29;;;;;;;5.07;1.00;;;3.50;99.90;;;;;;5035054;28;20087;-71
2022/04/10 07:12:54;;;;;;;7.75;1.30;;;3.50;99.90;;;;;;5033271;28;20136;-71
2022/04/10 07:15:20;;;;;;;7.32;1.75;;;3.40;99.90;;;;;;5026967;28;20051;-71
2022/04/10 07:17:46;;;;;;;3.90;0.85;;;3.40;99.90;;;;;;5031841;28;20048;-71
2022/04/10 07:20:11;;;;;;;2.38;1.00;;;3.40;99.90;;;;;;5025193;28;20083;-71
2022/04/10 07:25:22;;;;;;;7.82;1.10;;;3.40;99.90;;;;;;5019146;28;20061;-71
2022/04/10 07:27:48;;;;;;;6.07;1.10;;;3.50;99.90;;;;;;5027003;28;20061;-71
2022/04/10 07:30:14;;;;;;;7.80;1.63;;;3.70;99.90;;;;;;5018188;28;20049;-72
2022/04/10 07:32:39;;;;;;;5.35;1.10;;;3.90;99.90;;;;;;5021386;28;20414;-72
2022/04/10 07:35:06;;;;;;;7.88;1.58;;;4.00;99.90;;;;;;5031349;28;20076;-72
2022/04/10 07:37:32;;;;;;;8.18;2.70;;;4.00;99.90;;;;;;5037209;28;20052;-70
2022/04/10 07:39:58;;;;;;;6.63;1.60;;;4.00;99.90;;;;;;5042479;28;20040;-71
2022/04/10 07:42:24;;;;;;;6.65;1.52;;;4.10;99.90;;;;;;5027605;28;20057;-71
2022/04/10 07:44:54;;;;;;;7.07;1.90;;;4.20;99.90;;;;;;5034429;28;20820;-71
2022/04/10 07:47:27;;;;;;;6.15;1.40;;;4.30;99.90;;;;;;5030771;28;20152;-71
2022/04/10 07:49:55;;;;;;;9.57;1.27;;;4.40;99.90;;;;;;5032408;28;20041;-71
2022/04/10 07:52:22;;;;;;;5.68;1.48;;;4.50;99.90;;;;;;5036483;28;20901;-71
2022/04/10 07:54:48;;;;;;;5.90;1.42;;;4.60;99.90;;;;;;5033108;28;20257;-71
2022/04/10 07:57:14;;;;;;;4.97;1.00;;;4.70;99.90;;;;;;5031109;28;20607;-70
2022/04/10 07:59:40;;;;;;;7.13;1.35;;;4.70;99.90;;;;;;5034269;28;20040;-71
2022/04/10 08:02:06;;;;;;;6.68;1.30;;;4.80;99.90;;;;;;5032452;28;20071;-71
2022/04/10 08:04:32;;;;;;;5.55;1.02;;;5.00;99.90;;;;;;5030423;28;20128;-70
2022/04/10 08:06:58;;;;;;;5.68;1.38;;;5.00;99.90;;;;;;5030743;28;20084;-74
2022/04/10 08:09:23;;;;;;;4.38;1.05;;;5.10;99.90;;;;;;5031301;28;20049;-74
2022/04/10 08:11:51;;;;;;;11.02;1.88;;;5.20;99.90;;;;;;5031424;28;20129;-74
2022/04/10 08:14:17;;;;;;;10.60;1.27;;;5.20;99.90;;;;;;5029220;28;20045;-74
2022/04/10 08:16:43;;;;;;;10.90;1.65;;;5.40;99.90;;;;;;5026364;28;20128;-73
2022/04/10 08:19:08;;;;;;;4.53;1.52;;;5.40;99.90;;;;;;5032184;28;20048;-72
2022/04/10 08:21:34;;;;;;;8.38;1.30;;;5.50;99.90;;;;;;5034833;28;20041;-73
2022/04/10 08:24:00;;;;;;;9.60;1.75;;;5.60;99.90;;;;;;5023990;28;20052;-73
2022/04/10 08:26:25;;;;;;;7.57;1.30;;;5.60;99.90;;;;;;5028665;28;20053;-72
2022/04/10 08:28:51;;;;;;;6.18;1.40;;;5.70;99.90;;;;;;5033548;28;20041;-72
2022/04/10 08:31:16;;;;;;;9.98;1.38;;;5.80;99.90;;;;;;5029056;28;20394;-73
2022/04/10 08:33:42;;;;;;;7.68;1.75;;;6.00;99.90;;;;;;5031469;28;20583;-72
2022/04/10 08:36:08;;;;;;;14.18;1.40;;;6.20;99.90;;;;;;5032094;28;20048;-73
2022/04/10 08:38:34;;;;;;;9.65;1.63;;;6.40;99.90;;;;;;5029891;28;20045;-72
2022/04/10 08:41:01;;;;;;;8.02;1.00;;;6.60;99.90;;;;;;5023767;28;20678;-74
2022/04/10 08:43:28;;;;;;;9.40;1.30;;;6.70;99.90;;;;;;5024581;28;20145;-72
2022/04/10 08:45:58;;;;;;;11.80;1.65;;;6.70;99.90;;;;;;5028509;28;20061;-73
2022/04/10 08:48:26;;;;;;;13.60;1.40;;;6.80;99.90;;;;;;5025982;28;20044;-72
2022/04/10 08:50:54;;;;;;;9.23;1.65;;;6.80;99.90;;;;;;5027874;28;20382;-70
2022/04/10 08:53:24;;;;;;;10.68;1.95;;;6.90;99.90;;;;;;5022738;28;20044;-70
2022/04/10 08:55:50;;;;;;;7.75;1.23;;;7.00;99.90;;;;;;5031339;28;20057;-71
2022/04/10 08:58:16;;;;;;;8.75;1.00;;;7.10;99.90;;;;;;5031919;28;20052;-71
2022/04/10 09:00:43;;;;;;;13.05;1.58;;;7.30;99.90;;;;;;5028658;28;20037;-71
2022/04/10 09:03:08;;;;;;;8.60;1.60;;;7.30;99.90;;;;;;5027927;28;20527;-72
2022/04/10 09:05:34;;;;;;;6.32;1.02;;;7.20;99.90;;;;;;5029597;28;20049;-71
2022/04/10 09:08:10;;;;;;;8.77;1.67;;;7.20;99.90;;;;;;5027156;28;20049;-71
2022/04/10 09:10:59;;;;;;;8.40;1.30;;;7.30;99.90;;;;;;5036725;28;20075;-71
2022/04/10 09:13:35;;;;;;;8.13;1.20;;;7.50;99.90;;;;;;5030928;28;20057;-71
2022/04/10 09:16:13;;;;;;;6.75;0.95;;;7.50;99.90;;;;;;5039919;28;20077;-71
2022/04/10 09:18:51;;;;;;;4.95;0.98;;;7.60;99.90;;;;;;5028061;28;20559;-71
2022/04/10 09:21:20;;;;;;;17.33;1.20;;;7.70;99.90;;;;;;5031256;28;20048;-72
2022/04/10 09:23:53;;;;;;;10.35;1.20;;;7.80;99.90;;;;;;5038782;28;20500;-72
2022/04/10 09:26:19;;;;;;;11.05;1.20;;;7.80;99.90;;;;;;5029630;28;20053;-71
2022/04/10 09:28:49;;;;;;;11.07;1.30;;;8.00;99.90;;;;;;5033208;28;20041;-71
2022/04/10 09:31:29;;;;;;;7.50;1.20;;;8.20;99.90;;;;;;5028001;28;20049;-72
2022/04/10 09:33:57;;;;;;;5.22;0.80;;;8.30;99.90;;;;;;5026781;28;20158;-71
2022/04/10 09:36:31;;;;;;;4.10;0.90;;;8.20;99.90;;;;;;5028712;28;20040;-71
2022/04/10 09:38:57;;;;;;;7.28;0.75;;;8.10;99.90;;;;;;5034339;28;20041;-71
2022/04/10 09:41:23;;;;;;;6.95;0.93;;;8.20;99.90;;;;;;5024267;28;20052;-71
2022/04/10 09:43:49;;;;;;;3.63;0.80;;;8.20;99.90;;;;;;5035615;28;20060;-71
2022/04/10 09:46:14;;;;;;;7.63;1.10;;;8.20;99.90;;;;;;5032086;28;20832;-71
2022/04/10 09:48:40;;;;;;;3.20;0.77;;;8.30;99.90;;;;;;5031972;28;20138;-71
2022/04/10 09:51:06;;;;;;;5.90;0.75;;;8.40;99.90;;;;;;5030353;28;20117;-71
2022/04/10 09:53:33;;;;;;;8.32;0.80;;;8.40;99.90;;;;;;5030953;28;20048;-71
2022/04/10 09:56:02;;;;;;;6.65;1.00;;;8.60;99.90;;;;;;5034864;28;20114;-71
2022/04/10 09:58:28;;;;;;;6.25;0.77;;;8.80;99.90;;;;;;5025674;28;20053;-71
2022/04/10 10:00:55;;;;;;;9.75;0.98;;;8.90;99.90;;;;;;5030736;28;20151;-71
2022/04/10 10:03:25;;;;;;;5.50;0.90;;;9.10;99.90;;;;;;5025776;28;20049;-71
2022/04/10 10:05:52;;;;;;;5.38;0.68;;;9.30;99.90;;;;;;5027346;28;20098;-71
2022/04/10 10:08:19;;;;;;;7.78;1.40;;;9.50;99.90;;;;;;5036687;28;20048;-71
2022/04/10 10:10:45;;;;;;;6.47;0.90;;;9.60;99.90;;;;;;5034779;28;20774;-71
2022/04/10 10:13:14;;;;;;;8.60;1.10;;;9.70;99.90;;;;;;5032313;28;20932;-71
2022/04/10 10:15:42;;;;;;;8.85;0.80;;;10.50;99.90;;;;;;5035508;28;20049;-71
2022/04/10 10:18:12;;;;;;;5.40;0.88;;;9.80;99.90;;;;;;5033243;28;20044;-72
2022/04/10 10:20:40;;;;;;;11.02;1.33;;;9.70;99.90;;;;;;5031109;28;20045;-71
2022/04/10 10:23:11;;;;;;;8.32;1.20;;;9.50;99.90;;;;;;5031966;28;20044;-71
2022/04/10 10:25:43;;;;;;;9.52;1.25;;;9.40;99.90;;;;;;5020686;28;20049;-71
2022/04/10 10:28:46;;;;;;;7.65;1.02;;;9.30;99.90;;;;;;5037839;28;20130;-72
2022/04/10 10:31:37;;;;;;;9.15;1.33;;;9.10;99.90;;;;;;5029928;28;20115;-71
2022/04/10 10:34:06;;;;;;;6.78;0.98;;;8.90;99.90;;;;;;5025777;28;20390;-71
2022/04/10 10:36:32;;;;;;;8.90;1.10;;;8.70;99.90;;;;;;5021393;28;20034;-71
2022/04/10 10:38:58;;;;;;;6.22;1.02;;;8.80;99.90;;;;;;5031857;28;20084;-71
2022/04/10 10:41:24;;;;;;;8.63;1.50;;;8.90;99.90;;;;;;5026778;28;20045;-72
2022/04/10 10:43:50;;;;;;;6.28;1.02;;;9.10;99.90;;;;;;5034925;28;20052;-71
2022/04/10 10:46:23;;;;;;;5.53;0.93;;;9.30;99.90;;;;;;5029164;28;20850;-72
2022/04/10 10:48:53;;;;;;;5.55;1.30;;;9.30;99.90;;;;;;5029451;28;20148;-71
2022/04/10 10:51:18;;;;;;;10.77;1.25;;;9.30;99.90;;;;;;5035281;28;20563;-72
2022/04/10 10:53:55;;;;;;;7.95;1.13;;;9.30;99.90;;;;;;5034468;28;20052;-74
2022/04/10 10:56:27;;;;;;;7.50;1.52;;;9.20;99.90;;;;;;5033030;28;20542;-74
2022/04/10 10:58:55;;;;;;;7.90;1.17;;;9.30;99.90;;;;;;5026676;28;20481;-78
2022/04/10 11:01:25;;;;;;;6.43;1.20;;;9.30;99.90;;;;;;5035148;28;20045;-72
2022/04/10 11:04:09;;;;;;;8.50;1.48;;;9.70;99.90;;;;;;5031965;28;20397;-75
2022/04/10 11:06:45;;;;;;;5.13;0.90;;;10.00;99.90;;;;;;5034826;28;20152;-73
2022/04/10 11:09:28;;;;;;;8.15;1.27;;;10.20;99.90;;;;;;5033372;28;20036;-72
2022/04/10 11:11:55;;;;;;;9.27;1.95;;;10.50;99.90;;;;;;5033765;28;20563;-72
2022/04/10 11:14:45;;;;;;;8.80;1.30;;;10.50;99.90;;;;;;5030318;28;20053;-73
2022/04/10 11:17:27;;;;;;;5.25;1.10;;;10.50;99.90;;;;;;5034550;28;20055;-72
2022/04/10 11:19:55;;;;;;;6.00;0.90;;;10.40;99.90;;;;;;5031675;28;20053;-72
2022/04/10 11:22:30;;;;;;;7.65;1.15;;;10.00;99.90;;;;;;5033393;28;20094;-71
2022/04/10 11:24:59;;;;;;;;;;;9.70;99.90;;;;;;5037237;28;20052;-71
2022/04/10 11:27:43;;;;;;;8.13;1.88;;;9.50;99.90;;;;;;5036018;28;20422;-71
2022/04/10 11:30:12;;;;;;;9.23;0.95;;;9.60;99.90;;;;;;5032810;28;20109;-72
2022/04/10 11:32:42;;;;;;;5.85;1.00;;;9.80;99.90;;;;;;5032433;28;20076;-71
2022/04/10 11:35:18;;;;;;;9.10;1.27;;;10.00;99.90;;;;;;5033025;28;20870;-71
2022/04/10 11:37:47;;;;;;;5.35;1.00;;;10.20;99.90;;;;;;5032895;28;20448;-71
2022/04/10 11:40:14;;;;;;;6.57;1.10;;;10.40;99.90;;;;;;5031843;28;20649;-72
2022/04/10 11:42:40;;;;;;;8.63;0.80;;;10.60;99.90;;;;;;5027468;28;20037;-71
2022/04/10 11:45:08;;;;;;;6.15;0.88;;;10.80;99.90;;;;;;5032074;28;20041;-71
2022/04/10 11:47:35;;;;;;;5.70;0.95;;;10.90;99.90;;;;;;5033340;28;20045;-71
2022/04/10 11:50:02;;;;;;;3.78;0.75;;;10.90;99.90;;;;;;5037151;28;20051;-71
2022/04/10 11:52:27;;;;;;;11.02;1.65;;;11.00;99.90;;;;;;5030985;28;20493;-72
2022/04/10 11:54:53;;;;;;;5.50;1.15;;;10.90;99.90;;;;;;5030319;28;20048;-72
2022/04/10 11:57:19;;;;;;;3.90;0.88;;;10.70;99.90;;;;;;5031420;28;20409;-71
2022/04/10 11:59:45;;;;;;;5.78;0.88;;;10.40;99.90;;;;;;5032416;28;20076;-71
2022/04/10 12:02:12;;;;;;;4.13;0.82;;;10.30;99.90;;;;;;5028150;28;20048;-71
2022/04/10 12:04:40;;;;;;;6.90;0.90;;;10.40;99.90;;;;;;5034520;28;20796;-71
2022/04/10 12:07:13;;;;;;;5.72;0.80;;;10.60;99.90;;;;;;5031684;28;20064;-71
2022/04/10 12:09:40;;;;;;;4.90;0.80;;;10.70;99.90;;;;;;5027197;28;20049;-71
2022/04/10 12:12:06;;;;;;;5.88;0.90;;;10.80;99.90;;;;;;5033569;28;20134;-71
2022/04/10 12:14:32;;;;;;;6.65;1.13;;;10.90;99.90;;;;;;5034022;28;20087;-71
2022/04/10 12:16:58;;;;;;;5.32;0.68;;;11.00;99.90;;;;;;5032252;28;20098;-71
2022/04/10 12:19:37;;;;;;;5.20;1.00;;;11.10;99.90;;;;;;5036513;28;20048;-71
2022/04/10 12:22:03;;;;;;;5.15;0.80;;;10.90;99.90;;;;;;5049933;28;20052;-71
2022/04/10 12:24:28;;;;;;;8.48;1.08;;;10.70;99.90;;;;;;5036601;28;20053;-71
2022/04/10 12:26:54;;;;;;;3.88;0.90;;;10.70;99.90;;;;;;5037196;28;20781;-72
2022/04/10 12:29:21;;;;;;;6.93;1.00;;;10.90;99.90;;;;;;5037105;28;20049;-72
2022/04/10 12:31:48;;;;;;;5.45;1.00;;;11.10;99.90;;;;;;5035211;28;20495;-72
2022/04/10 12:34:14;;;;;;;7.72;1.02;;;11.40;99.90;;;;;;5037357;28;20033;-71
2022/04/10 12:36:47;;;;;;;6.45;0.80;;;11.40;99.90;;;;;;5042813;28;20773;-71
2022/04/10 12:39:27;;;;;;;6.35;1.38;;;11.30;99.90;;;;;;5040739;28;20485;-71
2022/04/10 12:42:00;;;;;;;5.63;0.77;;;11.40;99.90;;;;;;5034520;28;20045;-74
2022/04/10 12:44:26;;;;;;;9.07;1.52;;;11.60;99.90;;;;;;5034983;28;20044;-73
2022/04/10 12:46:52;;;;;;;3.92;1.00;;;11.80;99.90;;;;;;5041098;28;20468;-73
2022/04/10 12:49:18;;;;;;;4.40;1.13;;;11.90;99.90;;;;;;5038866;28;20045;-73
2022/04/10 12:51:56;;;;;;;7.88;0.80;;;11.80;99.90;;;;;;5040191;28;20043;-73
2022/04/10 12:54:39;;;;;;;12.02;1.33;;;11.60;99.90;;;;;;5040441;28;20048;-73
2022/04/10 12:57:06;;;;;;;4.47;0.70;;;11.40;99.90;;;;;;5040150;28;20076;-73